Terminal Aerodrome Forecast
Issued by NWS Knoxville/Tri Cities, TN

Home | Current Version | Previous Version | Text Only | Print | Product List | Glossary On
Versions: 1 2 3 4 5 6 7 8 9 10 11 12 13 14 15 16 17 18 19 20 21 22 23 24 25 26 27 28 29 30 31 32 33
000
FTUS44 KMRX 272322
TAFTYS
TAF
KTYS 272322Z 2800/2824 24004KT P6SM FEW040
      TEMPO 2809/2812 5SM BR SCT010
     FM281400 20006KT P6SM SCT015 SCT250
     FM281800 22014G20KT P6SM SCT250
     FM282300 22010KT P6SM BKN250=

USA.gov is the U.S. government's official web portal to all federal, state and local government web resources and services.